Thunder radar more information blitzortung!


Radar de pluja more information rain snow radar


Visita la nostra xarxa de llocs de meteo:

Template documentation
and downloads

And another site



No particular awareness of the weather is required.    There are no Weather-warnings

Pagina Historial Weather Underground text

Diari Resum Octubre 22, 2017 Unitats:  Imperial    Mètric   Tant
« Previous Dia
SegĂźent Dia »
Diari Setmana Mensual Anual Personalitzada
  Maxima: Minima: Media:
Temperatura: 69.8 °F 55.4 °F 63 °F
Punt de rosada: 58.6 °F 41.4 °F 45.9 °F
Humitat: 83 % 47 % 54 %
Wind Speed: 11.5 mph 0 mph 3 mph
RĂ fegues de vent: 11.5 mph - -
Vent:- - WSW
Pression baro: 30.3 in 30.2 in -
Precipitacions: 0 in    
Historical Graphs
 
 
Dades de taula per Octubre 22, 2017
Temps Temperatura Punt de rosada Pression baro Vent Wind Speed RĂ fegues de vent Humitat Rainfall Rate (Hourly)
00:03 63.7 °F 58.1 °F 30.2 in WSW 2.3 mph 2.3 mph 82 % 0 in
00:05 59.5 °F 46 °F 30.2 in NW 1 mph 2 mph 61 % 0 in
00:08 63.7 °F 58.1 °F 30.2 in WSW 1.2 mph   82 % 0 in
00:13 63.9 °F 58.6 °F 30.2 in WSW 1.2 mph   83 % 0 in
00:15 59 °F 45.7 °F 30.2 in North 2 mph 2 mph 61 % 0 in
00:25 59 °F 45.7 °F 30.2 in West 1 mph 4 mph 61 % 0 in
00:35 58.8 °F 45 °F 30.2 in WNW 2 mph 5 mph 60 % 0 in
00:45 58.6 °F 44.8 °F 30.2 in NW 2 mph 3 mph 60 % 0 in
00:55 58.6 °F 44.2 °F 30.2 in NW 5 mph 5 mph 59 % 0 in
01:05 58.5 °F 43.7 °F 30.2 in WNW 5 mph 6 mph 58 % 0 in
01:15 58.3 °F 43.5 °F 30.2 in West 2 mph 3 mph 58 % 0 in
01:25 58.1 °F 43.3 °F 30.2 in West 2 mph 3 mph 58 % 0 in
01:35 57.7 °F 43.2 °F 30.2 in WNW 1 mph 2 mph 58 % 0 in
01:45 57.6 °F 43 °F 30.2 in North 2 mph 2 mph 58 % 0 in
01:55 57.4 °F 42.6 °F 30.2 in NNW 1 mph 6 mph 58 % 0 in
02:05 57.2 °F 42.4 °F 30.2 in NNW 2 mph 5 mph 58 % 0 in
02:15 56.8 °F 42.6 °F 30.2 in NNE 1 mph 3 mph 59 % 0 in
02:25 56.7 °F 42.4 °F 30.2 in NE 2 mph 5 mph 59 % 0 in
02:35 56.5 °F 42.3 °F 30.2 in NNE 1 mph 2 mph 59 % 0 in
02:45 56.3 °F 42.6 °F 30.2 in Calm   2 mph 60 % 0 in
02:55 55.9 °F 42.3 °F 30.2 in North 1 mph 2 mph 60 % 0 in
03:05 55.8 °F 42.1 °F 30.2 in WNW 1 mph 2 mph 60 % 0 in
03:15 55.8 °F 42.1 °F 30.2 in WNW 1 mph 3 mph 60 % 0 in
03:25 55.4 °F 41.7 °F 30.2 in Calm   1 mph 60 % 0 in
03:35 55.4 °F 42.3 °F 30.2 in NNE 1 mph 2 mph 61 % 0 in
03:45 55.4 °F 42.3 °F 30.3 in NW 1 mph 4 mph 61 % 0 in
03:55 55.6 °F 42.3 °F 30.3 in West 2 mph 3 mph 61 % 0 in
04:05 55.4 °F 42.3 °F 30.3 in West 1 mph 3 mph 61 % 0 in
04:15 55.4 °F 42.6 °F 30.3 in Calm   2 mph 62 % 0 in
04:25 57.2 °F 44.2 °F 30.3 in SW 1 mph 2 mph 62 % 0 in
04:35 57.9 °F 44.4 °F 30.3 in ENE 1 mph 3 mph 61 % 0 in
04:45 57.6 °F 44.2 °F 30.3 in NE 1 mph 1 mph 61 % 0 in
04:55 57.7 °F 44.8 °F 30.3 in Calm   3 mph 62 % 0 in
05:05 58.6 °F 45.1 °F 30.3 in NE 1 mph 3 mph 61 % 0 in
05:15 59 °F 45.7 °F 30.3 in NE 2 mph 3 mph 61 % 0 in
05:25 59.4 °F 45.9 °F 30.3 in WNW 2 mph 3 mph 61 % 0 in
05:35 59.5 °F 45.7 °F 30.3 in WSW 2 mph 5 mph 60 % 0 in
05:45 60.6 °F 46.8 °F 30.3 in WSW 1 mph 4 mph 60 % 0 in
05:55 60.1 °F 46 °F 30.3 in West 5 mph 5 mph 60 % 0 in
06:05 60.8 °F 46.4 °F 30.3 in West 1 mph 3 mph 59 % 0 in
11:09 61.2 °F 46.8 °F 30.3 in WSW 3.5 mph 3.5 mph 59 % 0 in
11:10 61.2 °F 46.2 °F 30.3 in West 3.5 mph 3.6 mph 58 % 0 in
11:15 61 °F 46 °F 30.3 in West 11.5 mph 11.5 mph 58 % 0 in
11:20 61 °F 45.7 °F 30.3 in SW 4.6 mph 4.6 mph 57 % 0 in
11:25 61.2 °F 45.9 °F 30.3 in SSW 5.8 mph 5.8 mph 57 % 0 in
11:30 61.7 °F 46.8 °F 30.3 in WNW 4.9 mph 4.9 mph 58 % 0 in
11:35 62.1 °F 46.6 °F 30.3 in ENE 4.6 mph 4.6 mph 57 % 0 in
11:40 62.4 °F 46.9 °F 30.3 in WSW 2.9 mph 2.9 mph 57 % 0 in
11:45 63.1 °F 47.1 °F 30.3 in WSW 3.1 mph 3.1 mph 56 % 0 in
11:50 63.5 °F 47.5 °F 30.3 in SW 3.5 mph 3.5 mph 56 % 0 in
11:55 63.9 °F 47.8 °F 30.3 in SW 5.8 mph 5.8 mph 56 % 0 in
12:00 63.7 °F 47.7 °F 30.3 in SW 5.8 mph 5.8 mph 56 % 0 in
12:05 63.3 °F 46.9 °F 30.3 in WNW 8.1 mph 8.1 mph 55 % 0 in
12:10 63.5 °F 46.9 °F 30.3 in WSW 5.8 mph 5.8 mph 55 % 0 in
12:15 63.7 °F 47.1 °F 30.3 in NNE 5.8 mph 5.8 mph 55 % 0 in
12:20 63.9 °F 46.9 °F 30.3 in WNW 4.6 mph 4.6 mph 54 % 0 in
12:25 64.4 °F 47.5 °F 30.3 in WNW 3.5 mph 3.5 mph 54 % 0 in
12:29 64.6 °F 47.7 °F 30.3 in SW 3.5 mph 3.5 mph 54 % 0 in
12:34 64.6 °F 47.7 °F 30.3 in WSW 8.1 mph 8.1 mph 54 % 0 in
12:39 64.8 °F 47.1 °F 30.3 in WSW 2.3 mph 2.3 mph 53 % 0 in
12:44 64.9 °F 47.8 °F 30.3 in West 4.7 mph 4.7 mph 54 % 0 in
12:49 64.9 °F 47.5 °F 30.3 in WSW 10.4 mph 10.4 mph 53 % 0 in
12:54 65.5 °F 47.8 °F 30.3 in WNW 3.5 mph 3.5 mph 53 % 0 in
12:59 65.8 °F 48.2 °F 30.3 in WSW 4.6 mph 4.6 mph 53 % 0 in
13:04 66.2 °F 48 °F 30.3 in WSW 7.8 mph 7.8 mph 52 % 0 in
13:09 65.8 °F 48.2 °F 30.3 in WNW 3.5 mph 3.5 mph 53 % 0 in
13:10 66 °F 48.4 °F 30.3 in NW 3.5 mph 3.5 mph 53 % 0 in
13:15 65.7 °F 47.5 °F 30.3 in SW 4.6 mph 4.6 mph 52 % 0 in
13:20 65.7 °F 47.5 °F 30.3 in SW 4.6 mph 4.6 mph 52 % 0 in
13:25 66 °F 47.8 °F 30.3 in NW 5.8 mph 5.8 mph 52 % 0 in
13:30 66 °F 47.8 °F 30.3 in WNW 4.6 mph 4.6 mph 52 % 0 in
13:35 65.8 °F 47.7 °F 30.3 in WNW 3.5 mph 3.5 mph 52 % 0 in
13:40 66.4 °F 47.7 °F 30.3 in NNE 4.6 mph 4.6 mph 51 % 0 in
13:45 66.9 °F 48.2 °F 30.3 in WNW 5.8 mph 5.8 mph 51 % 0 in
13:50 67.1 °F 48.4 °F 30.3 in West 5.8 mph 5.8 mph 51 % 0 in
13:55 66.9 °F 48.2 °F 30.3 in SW 6.2 mph 6.2 mph 51 % 0 in
14:00 66.7 °F 47.5 °F 30.3 in WSW 3.5 mph 3.5 mph 50 % 0 in
14:05 67.1 °F 48.4 °F 30.3 in WNW 4.5 mph 4.5 mph 51 % 0 in
14:10 67.5 °F 48.2 °F 30.3 in SW 6 mph 6 mph 50 % 0 in
14:15 67.3 °F 48 °F 30.3 in West 4.6 mph 4.6 mph 50 % 0 in
14:20 67.1 °F 47.8 °F 30.3 in WSW 3.5 mph 3.5 mph 50 % 0 in
14:25 67.6 °F 48.4 °F 30.3 in West 8.1 mph 8.1 mph 50 % 0 in
14:30 67.6 °F 48.4 °F 30.3 in West 4.6 mph 4.6 mph 50 % 0 in
14:35 67.6 °F 47.8 °F 30.3 in SW 6.2 mph 6.2 mph 49 % 0 in
14:40 67.6 °F 47.8 °F 30.3 in WNW 5.8 mph 5.8 mph 49 % 0 in
14:45 67.5 °F 47.7 °F 30.3 in NW 3.5 mph 3.5 mph 49 % 0 in
14:50 67.8 °F 48.6 °F 30.3 in WSW 3.3 mph 4.9 mph 50 % 0 in
14:55 67.6 °F 47.8 °F 30.2 in West 4.6 mph 4.6 mph 49 % 0 in
15:00 68.4 °F 48.6 °F 30.2 in WSW 4.6 mph 4.6 mph 49 % 0 in
15:05 68.4 °F 48.6 °F 30.2 in WSW 8.1 mph 8.1 mph 49 % 0 in
15:10 68.2 °F 48.4 °F 30.2 in West 3.6 mph 3.6 mph 49 % 0 in
15:20 68.5 °F 48.6 °F 30.2 in WSW 8.1 mph 8.1 mph 49 % 0 in
15:25 68.5 °F 48.6 °F 30.2 in SW 4.6 mph 4.6 mph 49 % 0 in
15:30 68.9 °F 48.9 °F 30.2 in SW 3.5 mph 3.5 mph 49 % 0 in
15:35 68.9 °F 48.9 °F 30.2 in SW 6.9 mph 6.9 mph 49 % 0 in
15:40 68.2 °F 47.7 °F 30.2 in WNW 5.8 mph 5.8 mph 48 % 0 in
15:45 68.9 °F 48.9 °F 30.2 in WSW 6.9 mph 6.9 mph 49 % 0 in
15:50 68.9 °F 48.4 °F 30.2 in WSW 3.5 mph 3.5 mph 48 % 0 in
15:55 68.9 °F 48.4 °F 30.2 in WSW 4 mph 4 mph 48 % 0 in
16:00 68.7 °F 48.2 °F 30.2 in NW 5.8 mph 5.8 mph 48 % 0 in
16:05 69.1 °F 48.6 °F 30.2 in West 4.6 mph 4.6 mph 48 % 0 in
16:10 68.9 °F 48.4 °F 30.2 in WSW 4.6 mph 4.6 mph 48 % 0 in
16:15 69.1 °F 48.6 °F 30.2 in SW 4.3 mph 4.3 mph 48 % 0 in
16:20 68.9 °F 48.4 °F 30.2 in WNW 6.9 mph 6.9 mph 48 % 0 in
16:25 68.9 °F 48.4 °F 30.2 in WSW 3.5 mph 3.5 mph 48 % 0 in
16:30 68.9 °F 48.4 °F 30.2 in WSW 2.3 mph 2.3 mph 48 % 0 in
16:35 68.9 °F 48.4 °F 30.2 in WSW 4.6 mph 4.6 mph 48 % 0 in
16:40 69.3 °F 48.7 °F 30.2 in West 3.5 mph 3.5 mph 48 % 0 in
16:45 69.4 °F 48.9 °F 30.2 in NW 4.6 mph 4.6 mph 48 % 0 in
16:50 69.3 °F 48.7 °F 30.2 in WSW 5.8 mph 5.8 mph 48 % 0 in
16:55 69.3 °F 48.2 °F 30.2 in NW 2.3 mph 2.3 mph 47 % 0 in
17:00 69.6 °F 49.1 °F 30.2 in SW 3.5 mph 3.5 mph 48 % 0 in
17:05 69.6 °F 48.6 °F 30.2 in West 5.8 mph 5.8 mph 47 % 0 in
17:10 69.4 °F 48.4 °F 30.2 in WSW 5.8 mph 5.8 mph 47 % 0 in
17:15 69.8 °F 48.7 °F 30.2 in WNW 3.5 mph 3.5 mph 47 % 0 in
17:20 69.8 °F 48.7 °F 30.2 in WSW 3.5 mph 3.5 mph 47 % 0 in
17:21 69.6 °F 48.6 °F 30.2 in West 3.6 mph 3.6 mph 47 % 0 in
17:26 69.1 °F 48 °F 30.2 in West 3.5 mph 3.5 mph 47 % 0 in
17:31 68.5 °F 47.5 °F 30.2 in WNW 3.8 mph 3.8 mph 47 % 0 in
17:36 68.5 °F 47.5 °F 30.2 in North 3.5 mph 3.5 mph 47 % 0 in
17:41 68 °F 46.9 °F 30.2 in SSW 3.5 mph 3.5 mph 47 % 0 in
17:46 68 °F 46.9 °F 30.2 in NNW 4.6 mph 4.6 mph 47 % 0 in
17:51 67.8 °F 46.8 °F 30.2 in NW 3.5 mph 3.5 mph 47 % 0 in
17:56 67.6 °F 46.8 °F 30.2 in West 3.5 mph 3.5 mph 47 % 0 in
18:01 67.8 °F 46.8 °F 30.2 in WNW 2.3 mph 2.3 mph 47 % 0 in
18:06 67.6 °F 46.8 °F 30.2 in WNW 2.3 mph 2.3 mph 47 % 0 in
18:11 67.5 °F 47.1 °F 30.2 in WNW 3.5 mph 3.5 mph 48 % 0 in
18:16 67.3 °F 46.9 °F 30.2 in West 3.5 mph 3.5 mph 48 % 0 in
18:21 66.9 °F 46.6 °F 30.2 in NNW 3.5 mph 3.5 mph 48 % 0 in
18:26 66.6 °F 46.2 °F 30.2 in SW 2.9 mph 2.9 mph 48 % 0 in
18:31 66.4 °F 46 °F 30.2 in WSW 3.5 mph 3.5 mph 48 % 0 in
18:36 66.2 °F 45.9 °F 30.2 in WNW 5.8 mph 5.8 mph 48 % 0 in
18:41 65.8 °F 46 °F 30.2 in North 3.5 mph 3.5 mph 49 % 0 in
18:46 65.7 °F 46 °F 30.2 in WNW 3.5 mph 3.5 mph 49 % 0 in
18:51 65.1 °F 45.5 °F 30.2 in SW 3.5 mph 3.5 mph 49 % 0 in
18:56 64.8 °F 45.1 °F 30.2 in WSW 2.9 mph 2.9 mph 49 % 0 in
19:01 64.4 °F 44.8 °F 30.2 in West 2.4 mph 2.4 mph 49 % 0 in
19:06 64.2 °F 44.6 °F 30.2 in SW 2.3 mph 2.3 mph 49 % 0 in
19:11 63.9 °F 44.2 °F 30.2 in SW 1.4 mph   49 % 0 in
19:16 63.5 °F 44.4 °F 30.2 in WNW 1.2 mph 1.2 mph 50 % 0 in
19:21 63.1 °F 44.2 °F 30.2 in NW 1.2 mph   50 % 0 in
19:26 62.8 °F 43.9 °F 30.2 in Calm     50 % 0 in
19:31 62.6 °F 43.7 °F 30.2 in Calm     50 % 0 in
19:36 62.6 °F 43.7 °F 30.2 in West 1.2 mph 1.2 mph 50 % 0 in
19:41 62.4 °F 44.6 °F 30.2 in West 1.2 mph 1.2 mph 52 % 0 in
19:46 62.2 °F 44.4 °F 30.2 in West 1.4 mph   52 % 0 in
19:51 61.9 °F 44.1 °F 30.2 in West 1.4 mph 1.4 mph 52 % 0 in
19:56 61.9 °F 44.1 °F 30.2 in West 2.3 mph 2.3 mph 52 % 0 in
20:01 61.9 °F 44.1 °F 30.2 in WSW 2.3 mph 2.3 mph 52 % 0 in
20:06 62.1 °F 44.2 °F 30.2 in West 2.6 mph 2.6 mph 52 % 0 in
20:11 61.9 °F 44.1 °F 30.2 in WSW 3.5 mph 3.5 mph 52 % 0 in
20:16 61.9 °F 44.1 °F 30.2 in West 2 mph 2 mph 52 % 0 in
20:21 61.7 °F 44.4 °F 30.2 in WSW 1.4 mph 1.4 mph 53 % 0 in
20:26 61.5 °F 44.2 °F 30.2 in WSW 2.3 mph 2.3 mph 53 % 0 in
20:31 61.3 °F 44.1 °F 30.2 in WSW 1.2 mph   53 % 0 in
20:36 61.2 °F 43.9 °F 30.2 in Calm     53 % 0 in
20:41 61.2 °F 43.9 °F 30.2 in WNW 1.4 mph   53 % 0 in
20:46 61.2 °F 43.9 °F 30.2 in WSW 2.3 mph 2.3 mph 53 % 0 in
20:51 61.2 °F 43.9 °F 30.2 in West 2 mph   53 % 0 in
20:56 61.2 °F 43.9 °F 30.2 in West 2.3 mph 2.3 mph 53 % 0 in
21:06 61 °F 43.7 °F 30.2 in WSW 2.3 mph   53 % 0 in
21:11 60.8 °F 43.5 °F 30.2 in SW 2.3 mph   53 % 0 in
21:16 60.6 °F 43.9 °F 30.2 in Calm     54 % 0 in
21:21 60.3 °F 43.5 °F 30.2 in West 1.4 mph 1.4 mph 54 % 0 in
21:26 60.1 °F 43.3 °F 30.2 in WSW 2.4 mph 2.4 mph 54 % 0 in
21:31 59.9 °F 43.2 °F 30.2 in WSW 1.4 mph 1.4 mph 54 % 0 in
21:36 59.7 °F 43 °F 30.2 in West 2.3 mph 2.3 mph 54 % 0 in
21:41 59.7 °F 43 °F 30.2 in West 1.2 mph   54 % 0 in
21:46 59.5 °F 43 °F 30.2 in West 1.6 mph   54 % 0 in
21:51 59.5 °F 43.3 °F 30.2 in WSW 1.2 mph   55 % 0 in
21:56 59.4 °F 43.2 °F 30.2 in WSW 1.2 mph 1.2 mph 55 % 0 in
22:01 59.2 °F 43 °F 30.2 in SW 1.2 mph 1.2 mph 55 % 0 in
22:06 58.8 °F 43.2 °F 30.2 in Calm     56 % 0 in
22:11 58.5 °F 42.8 °F 30.2 in Calm     56 % 0 in
22:16 58.3 °F 42.6 °F 30.2 in West 1.2 mph   56 % 0 in
22:21 58.3 °F 42.6 °F 30.2 in Calm     56 % 0 in
22:26 58.3 °F 42.3 °F 30.2 in NW 1.2 mph 1.2 mph 55 % 0 in
22:31 58.3 °F 42.6 °F 30.2 in Calm     56 % 0 in
22:36 58.1 °F 42.4 °F 30.2 in West 0.9 mph 1.2 mph 56 % 0 in
22:41 58.1 °F 42.4 °F 30.3 in Calm     56 % 0 in
22:46 58.1 °F 42.4 °F 30.3 in NNE 1.2 mph 1.2 mph 56 % 0 in
22:51 57.9 °F 42.3 °F 30.3 in Calm     56 % 0 in
22:56 57.9 °F 42.3 °F 30.3 in Calm     56 % 0 in
23:01 57.7 °F 42.1 °F 30.3 in Calm     56 % 0 in
23:06 57.7 °F 42.6 °F 30.3 in Calm     57 % 0 in
23:11 57.6 °F 42.4 °F 30.3 in WNW 1.2 mph   57 % 0 in
23:16 57.6 °F 42.4 °F 30.3 in WNW 1.2 mph   57 % 0 in
23:21 57.4 °F 42.3 °F 30.3 in WNW 1.2 mph 1.2 mph 57 % 0 in
23:26 57.2 °F 42.1 °F 30.3 in NE 1.2 mph   57 % 0 in
23:31 57 °F 42.4 °F 30.3 in NE 2 mph   58 % 0 in
23:36 57 °F 42.4 °F 30.3 in WNW 2.3 mph 2.3 mph 58 % 0 in
23:41 57 °F 42.4 °F 30.3 in NNE 1.2 mph   58 % 0 in
23:46 56.8 °F 42.6 °F 30.3 in WNW 1.2 mph   59 % 0 in
23:51 56.1 °F 42.1 °F 30.3 in SW 2.2 mph 2.2 mph 59 % 0 in
23:56 55.4 °F 41.4 °F 30.3 in WSW 2.4 mph 2.4 mph 59 % 0 in
Meteo Sesrovires
Elogis d' Weather Underground - 3.5 mb

Guio original per  Jim McMurry - jmcmurry@mwt.net Adaptat per a la plantilla per  Wim van der Kuil - Leuven-Template.eu

Trobareu la nostra informacio del temps tambe a:

Weather Underground

AWEKAS